Ana Sayfa
METAR-TAF:

METAR-TAF

Havaalanları :

Stockholm-Arlanda Havalimanı

Stokholm-Arlanda, İsveç

Enlem: 59-39N, Boylam: 017-57E, yükseklik: 38 m

Güncel hava durumu gözlemi

Rapor saat 15:50 UTC de 29 dakika önce yapıldı.
Rüzgar batı/güneybatıdan 6 kt, güneybatı ve batı/kuzeybatı arasında değişken
Sıcaklık 26°C
Nem 42%
Basınç 1012 hPa
Görüş mesafesi 10 km veya daha fazla
1500 m altında bulut yok ve kümülonimbus yok

METAR: ESSA 141550Z 25006KT 220V290 CAVOK 26/12 Q1012 NOSIG

Saat: 18:19 (16:19 UTC)

Tahmin

Rapor saat 11:30 UTC de 4 saat ve 49 dakika önce yapıldı.
Ayın 14'si saat 12 UTC'den ayın 15'si saat 12 UTC'ye kadar geçerli Tahmin
Rüzgar güney/güneybatıdan 8 kt
Görüş mesafesi 10 km veya daha fazla
1500 m altında bulut yok ve kümülonimbus yok
Olasılık 40%
ayın 14'si saat 12 UTC'den ayın 14'si saat 15 UTC'ye kadar
Rüzgar batıdan 10 kt

TAF: ESSA 141130Z 1412/1512 20008KT CAVOK PROB40 1412/1415 26010KT

4.000'den fazla havaalanı için hava durumu gözlemleri ve tahminleri (METAR ve TAF raporları).

Kullanılabilir istasyonlar harita üzerinde sarı ve kırmızı noktalarla gösterilir.

İstasyonun adını görmek için fareyi noktanın üzerinde gezdirin.

Sonrasında hava gözlem ve tahminlerini görmek için tıklayın.

Haritayı değiştirmek için: yaklaştırmak için siyah artı işaretli yeşil düğmeye ve uzaklaştırmak için de eksi işaretli düğmeye hızla tıklayın; bitişik haritalar için yeşil okları kullanın.


METAR-TAF: